createdAt,value
2024-05-09T00:00:15.478Z,10.8
2024-05-09T00:01:08.371Z,10.7
2024-05-09T00:02:08.413Z,10.7
2024-05-09T00:03:10.103Z,10.7
2024-05-09T00:04:09.009Z,10.6
2024-05-09T00:05:08.524Z,10.6
2024-05-09T00:06:08.520Z,10.6
2024-05-09T00:07:08.364Z,10.6
2024-05-09T00:08:08.830Z,10.6
2024-05-09T00:09:08.407Z,10.6
2024-05-09T00:10:14.517Z,10.6
2024-05-09T00:11:08.445Z,10.6
2024-05-09T00:12:09.272Z,10.6
2024-05-09T00:13:09.237Z,10.6
2024-05-09T00:14:08.761Z,10.6
2024-05-09T00:15:08.389Z,10.6
2024-05-09T00:16:08.971Z,10.6
2024-05-09T00:17:09.010Z,10.6
2024-05-09T00:18:09.232Z,10.6
2024-05-09T00:19:09.115Z,10.6
2024-05-09T00:20:14.439Z,10.6
2024-05-09T00:21:08.549Z,10.6
2024-05-09T00:22:09.108Z,10.6
2024-05-09T00:23:09.560Z,10.6
2024-05-09T00:24:08.845Z,10.6
2024-05-09T00:25:08.391Z,10.6
2024-05-09T00:26:08.460Z,10.6
2024-05-09T00:27:11.252Z,10.5
2024-05-09T00:28:08.378Z,10.5
2024-05-09T00:29:09.182Z,10.5
2024-05-09T00:30:11.684Z,10.5
2024-05-09T00:31:08.367Z,10.4
2024-05-09T00:32:08.749Z,10.4
2024-05-09T00:33:09.955Z,10.4
2024-05-09T00:34:08.688Z,10.4
2024-05-09T00:35:08.519Z,10.3
2024-05-09T00:36:08.364Z,10.3
2024-05-09T00:37:08.488Z,10.3
2024-05-09T00:38:09.120Z,10.3
2024-05-09T00:39:08.822Z,10.3
2024-05-09T00:40:15.071Z,10.2
2024-05-09T00:41:08.426Z,10.2
2024-05-09T00:42:08.362Z,10.2
2024-05-09T00:43:09.179Z,10.2
2024-05-09T00:44:08.978Z,10.2
2024-05-09T00:45:08.365Z,10.2
2024-05-09T00:46:08.734Z,10.2
2024-05-09T00:47:09.622Z,10.2
2024-05-09T00:48:10.187Z,10.1
2024-05-09T00:49:08.473Z,10.2
2024-05-09T00:50:12.862Z,10.1
2024-05-09T00:51:09.102Z,10.1
2024-05-09T00:52:09.141Z,10.1
2024-05-09T00:53:08.476Z,10.1
2024-05-09T00:54:08.659Z,10.1
2024-05-09T00:55:08.372Z,10.1
2024-05-09T00:56:09.139Z,10.1
2024-05-09T00:57:08.654Z,10.1
2024-05-09T00:58:08.973Z,10.1
2024-05-09T00:59:08.623Z,10.1
2024-05-09T01:00:18.373Z,10.1
2024-05-09T01:01:08.585Z,10.1
2024-05-09T01:02:08.464Z,10.1
2024-05-09T01:03:10.379Z,10
2024-05-09T01:04:08.483Z,10
2024-05-09T01:05:07.284Z,10
2024-05-09T01:06:08.382Z,10.1
2024-05-09T01:07:08.771Z,10
2024-05-09T01:08:08.899Z,10
2024-05-09T01:09:08.719Z,10
2024-05-09T01:10:14.120Z,10
2024-05-09T01:11:08.493Z,10
2024-05-09T01:12:08.613Z,10
2024-05-09T01:13:08.763Z,10
2024-05-09T01:14:08.531Z,10
2024-05-09T01:15:08.841Z,10
2024-05-09T01:16:08.738Z,10
2024-05-09T01:17:08.816Z,10
2024-05-09T01:18:08.608Z,10
2024-05-09T01:19:08.464Z,9.9
2024-05-09T01:20:10.954Z,9.9
2024-05-09T01:21:08.731Z,9.9
2024-05-09T01:22:08.378Z,9.9
2024-05-09T01:23:09.018Z,9.9
2024-05-09T01:24:08.683Z,9.8
2024-05-09T01:25:08.886Z,9.8
2024-05-09T01:26:08.414Z,9.8
2024-05-09T01:27:08.462Z,9.8
2024-05-09T01:28:08.818Z,9.7
2024-05-09T01:29:08.460Z,9.7
2024-05-09T01:30:11.938Z,9.7
2024-05-09T01:31:08.387Z,9.7
2024-05-09T01:32:08.455Z,9.7
2024-05-09T01:33:10.789Z,9.7
2024-05-09T01:34:09.247Z,9.7
2024-05-09T01:35:08.479Z,9.7
2024-05-09T01:36:08.391Z,9.7
2024-05-09T01:37:08.075Z,9.8
2024-05-09T01:38:08.501Z,9.7
2024-05-09T01:39:08.401Z,9.7
2024-05-09T01:40:12.273Z,9.7
2024-05-09T01:41:08.422Z,9.7
2024-05-09T01:43:09.763Z,9.7
2024-05-09T01:44:09.173Z,9.7
2024-05-09T01:45:08.393Z,9.7
2024-05-09T01:46:08.390Z,9.7
2024-05-09T01:47:08.501Z,9.7
2024-05-09T01:48:08.771Z,9.8
2024-05-09T01:49:09.273Z,9.8
2024-05-09T01:50:10.794Z,9.8
2024-05-09T01:51:08.640Z,9.8
2024-05-09T01:52:08.399Z,9.7
2024-05-09T01:53:08.623Z,9.7
2024-05-09T01:54:09.330Z,9.6
2024-05-09T01:55:08.746Z,9.6
2024-05-09T01:56:09.075Z,9.6
2024-05-09T01:57:08.390Z,9.6
2024-05-09T01:58:09.170Z,9.6
2024-05-09T01:59:08.425Z,9.6
2024-05-09T02:00:10.379Z,9.5
2024-05-09T02:01:09.167Z,9.5
2024-05-09T02:02:08.608Z,9.5
2024-05-09T02:03:08.993Z,9.5
2024-05-09T02:04:09.024Z,9.5
2024-05-09T02:05:11.190Z,9.5
2024-05-09T02:06:08.697Z,9.4
2024-05-09T02:07:08.401Z,9.4
2024-05-09T02:08:08.419Z,9.4
2024-05-09T02:09:08.417Z,9.4
2024-05-09T02:10:16.164Z,9.3
2024-05-09T02:11:07.352Z,9.3
2024-05-09T02:12:08.941Z,9.3
2024-05-09T02:13:09.216Z,9.3
2024-05-09T02:14:08.473Z,9.3
2024-05-09T02:15:08.413Z,9.4
2024-05-09T02:16:08.713Z,9.4
2024-05-09T02:17:08.510Z,9.4
2024-05-09T02:18:09.230Z,9.3
2024-05-09T02:19:09.268Z,9.3
2024-05-09T02:20:10.724Z,9.3
2024-05-09T02:21:09.218Z,9.3
2024-05-09T02:22:08.441Z,9.3
2024-05-09T02:23:09.422Z,9.3
2024-05-09T02:24:08.418Z,9.3
2024-05-09T02:25:08.464Z,9.3
2024-05-09T02:26:09.083Z,9.3
2024-05-09T02:27:08.406Z,9.3
2024-05-09T02:28:08.405Z,9.3
2024-05-09T02:29:09.011Z,9.3
2024-05-09T02:30:18.292Z,9.3
2024-05-09T02:31:08.405Z,9.3
2024-05-09T02:32:09.125Z,9.3
2024-05-09T02:33:10.796Z,9.3
2024-05-09T02:34:08.452Z,9.3
2024-05-09T02:35:08.414Z,9.3
2024-05-09T02:36:09.015Z,9.3
2024-05-09T02:37:09.218Z,9.2
2024-05-09T02:38:09.261Z,9.2
2024-05-09T02:39:08.696Z,9.2
2024-05-09T02:40:11.728Z,9.2
2024-05-09T02:41:09.119Z,9.2
2024-05-09T02:42:08.406Z,9.2
2024-05-09T02:43:10.115Z,9.1
2024-05-09T02:44:08.532Z,9.1
2024-05-09T02:45:08.415Z,9.1
2024-05-09T02:46:08.613Z,9.1
2024-05-09T02:47:09.656Z,9.1
2024-05-09T02:48:08.552Z,9.1
2024-05-09T02:49:12.151Z,9
2024-05-09T02:50:08.556Z,9
2024-05-09T02:51:09.157Z,9
2024-05-09T02:52:08.414Z,9
2024-05-09T02:53:10.040Z,9
2024-05-09T02:54:08.410Z,9
2024-05-09T02:55:09.123Z,9.1
2024-05-09T02:56:08.492Z,9.1
2024-05-09T02:57:09.156Z,9
2024-05-09T02:58:08.565Z,9
2024-05-09T02:59:09.042Z,9
2024-05-09T03:00:15.189Z,9
2024-05-09T03:01:08.960Z,9
2024-05-09T03:02:09.066Z,9
2024-05-09T03:03:09.994Z,9
2024-05-09T03:04:08.571Z,9
2024-05-09T03:05:08.488Z,9
2024-05-09T03:06:08.908Z,9
2024-05-09T03:07:08.415Z,9
2024-05-09T03:08:09.478Z,9
2024-05-09T03:09:08.442Z,9
2024-05-09T03:10:18.161Z,9
2024-05-09T03:11:09.446Z,8.9
2024-05-09T03:12:09.031Z,8.9
2024-05-09T03:13:09.258Z,8.9
2024-05-09T03:14:08.480Z,8.9
2024-05-09T03:15:08.719Z,8.9
2024-05-09T03:16:08.479Z,8.9
2024-05-09T03:17:08.931Z,8.9
2024-05-09T03:18:09.171Z,8.9
2024-05-09T03:19:08.853Z,8.9
2024-05-09T03:20:17.046Z,8.9
2024-05-09T03:21:08.619Z,8.9
2024-05-09T03:22:08.961Z,8.9
2024-05-09T03:23:09.804Z,8.9
2024-05-09T03:24:08.447Z,8.9
2024-05-09T03:25:08.439Z,8.9
2024-05-09T03:26:08.513Z,8.8
2024-05-09T03:27:08.777Z,8.8
2024-05-09T03:28:08.856Z,8.8
2024-05-09T03:29:08.546Z,8.8
2024-05-09T03:30:09.965Z,8.8
2024-05-09T03:31:08.433Z,8.8
2024-05-09T03:32:09.306Z,8.8
2024-05-09T03:33:08.869Z,8.8
2024-05-09T03:34:08.513Z,8.8
2024-05-09T03:35:07.337Z,8.8
2024-05-09T03:36:11.226Z,8.8
2024-05-09T03:37:09.137Z,8.8
2024-05-09T03:38:08.551Z,8.8
2024-05-09T03:39:08.929Z,8.8
2024-05-09T03:40:14.504Z,8.8
2024-05-09T03:41:09.274Z,8.8
2024-05-09T03:42:09.058Z,8.7
2024-05-09T03:43:08.439Z,8.7
2024-05-09T03:44:08.903Z,8.7
2024-05-09T03:45:08.797Z,8.7
2024-05-09T03:46:08.993Z,8.8
2024-05-09T03:47:08.778Z,8.7
2024-05-09T03:48:09.131Z,8.7
2024-05-09T03:49:03.059Z,8.7
2024-05-09T03:50:15.156Z,8.7
2024-05-09T03:51:08.713Z,8.7
2024-05-09T03:52:08.953Z,8.7
2024-05-09T03:53:08.500Z,8.8
2024-05-09T03:54:08.725Z,8.7
2024-05-09T03:55:08.447Z,8.7
2024-05-09T03:56:09.143Z,8.7
2024-05-09T03:57:08.578Z,8.7
2024-05-09T03:58:08.762Z,8.7
2024-05-09T03:59:08.471Z,8.8
2024-05-09T04:00:17.718Z,8.7
2024-05-09T04:01:08.482Z,8.7
2024-05-09T04:02:08.565Z,8.7
2024-05-09T04:03:11.156Z,8.7
2024-05-09T04:04:08.613Z,8.7
2024-05-09T04:05:08.504Z,8.7
2024-05-09T04:06:08.741Z,8.7
2024-05-09T04:07:08.443Z,8.7
2024-05-09T04:08:08.456Z,8.7
2024-05-09T04:09:08.447Z,8.7
2024-05-09T04:10:11.285Z,8.7
2024-05-09T04:11:09.142Z,8.7
2024-05-09T04:12:09.342Z,8.8
2024-05-09T04:13:08.440Z,8.8
2024-05-09T04:14:09.041Z,8.8
2024-05-09T04:15:12.076Z,8.8
2024-05-09T04:16:09.100Z,8.8
2024-05-09T04:17:08.944Z,8.8
2024-05-09T04:18:09.017Z,8.8
2024-05-09T04:19:09.220Z,8.8
2024-05-09T04:20:10.581Z,8.8
2024-05-09T04:21:09.329Z,8.9
2024-05-09T04:22:08.683Z,8.8
2024-05-09T04:23:09.382Z,8.9
2024-05-09T04:24:08.880Z,8.9
2024-05-09T04:25:08.720Z,8.9
2024-05-09T04:26:09.163Z,8.9
2024-05-09T04:27:09.072Z,8.9
2024-05-09T04:28:08.839Z,8.9
2024-05-09T04:29:08.472Z,8.9
2024-05-09T04:30:15.412Z,8.9
2024-05-09T04:31:08.478Z,8.9
2024-05-09T04:32:08.748Z,9
2024-05-09T04:33:10.751Z,9
2024-05-09T04:34:08.795Z,9
2024-05-09T04:35:08.620Z,9
2024-05-09T04:36:08.451Z,9
2024-05-09T04:37:09.034Z,9
2024-05-09T04:38:08.915Z,9
2024-05-09T04:39:08.487Z,9
2024-05-09T04:40:11.399Z,9.1
2024-05-09T04:41:08.513Z,9.1
2024-05-09T04:42:08.458Z,9.1
2024-05-09T04:43:09.164Z,9.1
2024-05-09T04:44:08.542Z,9.1
2024-05-09T04:45:08.445Z,9.2
2024-05-09T04:46:08.464Z,9.2
2024-05-09T04:47:09.102Z,9.2
2024-05-09T04:48:09.295Z,9.3
2024-05-09T04:50:11.624Z,9.3
2024-05-09T04:51:08.541Z,9.3
2024-05-09T04:52:08.726Z,9.4
2024-05-09T04:53:10.824Z,9.4
2024-05-09T04:54:10.580Z,9.4
2024-05-09T04:55:09.204Z,9.4
2024-05-09T04:56:09.137Z,9.4
2024-05-09T04:57:08.462Z,9.5
2024-05-09T04:58:09.149Z,9.5
2024-05-09T05:00:14.617Z,9.6
2024-05-09T05:01:09.031Z,9.6
2024-05-09T05:02:09.020Z,9.7
2024-05-09T05:03:10.760Z,9.7
2024-05-09T05:04:08.618Z,9.7
2024-05-09T05:05:08.944Z,9.7
2024-05-09T05:06:08.817Z,9.8
2024-05-09T05:07:08.466Z,9.8
2024-05-09T05:08:09.278Z,9.8
2024-05-09T05:09:08.892Z,9.9
2024-05-09T05:10:11.915Z,9.9
2024-05-09T05:11:09.086Z,9.9
2024-05-09T05:12:08.658Z,10
2024-05-09T05:13:09.205Z,10
2024-05-09T05:14:08.526Z,10.1
2024-05-09T05:15:08.467Z,10.1
2024-05-09T05:16:08.668Z,10.1
2024-05-09T05:17:08.678Z,10.2
2024-05-09T05:18:08.566Z,10.3
2024-05-09T05:19:11.459Z,10.3
2024-05-09T05:20:12.719Z,10.4
2024-05-09T05:21:08.483Z,10.5
2024-05-09T05:22:08.461Z,10.5
2024-05-09T05:23:08.911Z,10.6
2024-05-09T05:24:09.169Z,10.6
2024-05-09T05:25:08.463Z,10.7
2024-05-09T05:26:08.562Z,10.8
2024-05-09T05:27:09.391Z,10.8
2024-05-09T05:28:08.459Z,10.8
2024-05-09T05:30:14.678Z,11
2024-05-09T05:31:08.908Z,11
2024-05-09T05:32:09.192Z,11
2024-05-09T05:33:08.643Z,11.1
2024-05-09T05:34:08.688Z,11.2
2024-05-09T05:35:09.052Z,11.2
2024-05-09T05:36:08.506Z,11.2
2024-05-09T05:37:09.111Z,11.3
2024-05-09T05:38:08.521Z,11.3
2024-05-09T05:39:08.920Z,11.4
2024-05-09T05:40:11.867Z,11.4
2024-05-09T05:41:08.749Z,11.5
2024-05-09T05:42:08.481Z,11.6
2024-05-09T05:43:09.095Z,11.6
2024-05-09T05:44:08.932Z,11.6
2024-05-09T05:45:09.889Z,11.6
2024-05-09T05:46:08.470Z,11.7
2024-05-09T05:47:08.774Z,11.8
2024-05-09T05:48:08.838Z,11.9
2024-05-09T05:49:08.537Z,11.9
2024-05-09T05:50:20.640Z,11.9
2024-05-09T05:51:08.798Z,12
2024-05-09T05:52:08.923Z,12
2024-05-09T05:54:09.155Z,12
2024-05-09T05:55:09.256Z,12.1
2024-05-09T05:56:08.670Z,12.1
2024-05-09T05:57:08.478Z,12.2
2024-05-09T05:58:09.063Z,12.2
2024-05-09T05:59:08.544Z,12.2
2024-05-09T06:00:09.822Z,12.2
2024-05-09T06:01:07.381Z,12.3
2024-05-09T06:02:08.813Z,12.3
2024-05-09T06:03:09.315Z,12.2
2024-05-09T06:04:08.647Z,12.3
2024-05-09T06:05:07.444Z,12.3
2024-05-09T06:06:08.559Z,12.3
2024-05-09T06:07:08.481Z,12.4
2024-05-09T06:08:08.828Z,12.5
2024-05-09T06:09:08.497Z,12.5
2024-05-09T06:10:17.212Z,12.5
2024-05-09T06:11:08.727Z,12.6
2024-05-09T06:12:09.262Z,12.6
2024-05-09T06:13:08.534Z,12.7
2024-05-09T06:14:08.638Z,12.7
2024-05-09T06:15:09.290Z,12.8
2024-05-09T06:16:08.742Z,12.8
2024-05-09T06:17:09.144Z,12.9
2024-05-09T06:18:09.118Z,12.9
2024-05-09T06:19:08.675Z,12.9
2024-05-09T06:20:16.324Z,13
2024-05-09T06:21:08.590Z,13
2024-05-09T06:22:08.875Z,13.1
2024-05-09T06:23:09.026Z,13.2
2024-05-09T06:24:09.140Z,13.2
2024-05-09T06:25:08.500Z,13.2
2024-05-09T06:26:09.355Z,13.2
2024-05-09T06:27:08.494Z,13.3
2024-05-09T06:28:08.494Z,13.3
2024-05-09T06:29:08.526Z,13.3
2024-05-09T06:30:14.370Z,13.4
2024-05-09T06:31:08.498Z,13.4
2024-05-09T06:32:09.595Z,13.5
2024-05-09T06:33:10.503Z,13.5
2024-05-09T06:34:08.680Z,13.6
2024-05-09T06:35:09.075Z,13.6
2024-05-09T06:36:08.486Z,13.6
2024-05-09T06:37:08.488Z,13.6
2024-05-09T06:38:08.610Z,13.7
2024-05-09T06:39:08.975Z,13.7
2024-05-09T06:40:09.946Z,13.7
2024-05-09T06:41:08.536Z,13.7
2024-05-09T06:42:08.495Z,13.7
2024-05-09T06:43:09.039Z,13.9
2024-05-09T06:44:09.001Z,13.9
2024-05-09T06:45:08.502Z,14
2024-05-09T06:46:08.526Z,14
2024-05-09T06:47:09.123Z,14
2024-05-09T06:48:09.272Z,14.1
2024-05-09T06:49:09.567Z,14.2
2024-05-09T06:50:16.337Z,14.2
2024-05-09T06:51:08.516Z,14.3
2024-05-09T06:52:08.858Z,14.3
2024-05-09T06:53:09.844Z,14.3
2024-05-09T06:54:08.519Z,14.4
2024-05-09T06:55:09.020Z,14.4
2024-05-09T06:56:09.135Z,14.5
2024-05-09T06:57:10.083Z,14.4
2024-05-09T06:58:09.303Z,14.5
2024-05-09T06:59:08.531Z,14.6
2024-05-09T07:00:15.482Z,14.7
2024-05-09T07:01:09.264Z,14.8
2024-05-09T07:02:08.755Z,14.8
2024-05-09T07:03:09.892Z,14.8
2024-05-09T07:04:09.431Z,14.8
2024-05-09T07:05:08.690Z,14.8
2024-05-09T07:06:09.136Z,14.8
2024-05-09T07:07:08.502Z,14.8
2024-05-09T07:08:08.578Z,14.8
2024-05-09T07:09:08.643Z,14.9
2024-05-09T07:10:12.226Z,14.9
2024-05-09T07:11:08.625Z,15
2024-05-09T07:12:08.698Z,15
2024-05-09T07:13:08.969Z,15
2024-05-09T07:14:08.780Z,15.1
2024-05-09T07:15:09.319Z,15.1
2024-05-09T07:16:08.523Z,15.1
2024-05-09T07:17:09.090Z,15.2
2024-05-09T07:18:09.706Z,15.3
2024-05-09T07:19:08.773Z,15.3
2024-05-09T07:20:11.823Z,15.4
2024-05-09T07:21:08.601Z,15.4
2024-05-09T07:22:08.969Z,15.4
2024-05-09T07:23:08.549Z,15.5
2024-05-09T07:24:08.510Z,15.5
2024-05-09T07:25:09.327Z,15.5
2024-05-09T07:26:08.581Z,15.6
2024-05-09T07:27:08.531Z,15.6
2024-05-09T07:28:08.512Z,15.7
2024-05-09T07:29:09.056Z,15.7
2024-05-09T07:30:09.450Z,15.7
2024-05-09T07:31:08.755Z,15.8
2024-05-09T07:32:09.119Z,15.8
2024-05-09T07:33:08.733Z,15.8
2024-05-09T07:34:09.151Z,15.9
2024-05-09T07:35:08.976Z,15.9
2024-05-09T07:36:09.367Z,15.9
2024-05-09T07:37:09.246Z,16
2024-05-09T07:38:08.881Z,16
2024-05-09T07:39:08.650Z,16.1
2024-05-09T07:40:11.997Z,16.1
2024-05-09T07:41:08.909Z,16.1
2024-05-09T07:42:08.528Z,16.2
2024-05-09T07:43:09.284Z,16.2
2024-05-09T07:44:08.566Z,16.3
2024-05-09T07:45:29.562Z,16.3
2024-05-09T07:47:13.776Z,16.4
2024-05-09T07:48:14.672Z,16.4
2024-05-09T07:53:36.750Z,16.6
2024-05-09T07:54:09.352Z,16.6
2024-05-09T07:55:08.672Z,16.6
2024-05-09T07:56:09.958Z,16.7
2024-05-09T07:57:08.548Z,16.6
2024-05-09T07:58:09.250Z,16.8
2024-05-09T07:59:09.459Z,16.9
2024-05-09T08:00:11.712Z,17
2024-05-09T08:01:08.788Z,17
2024-05-09T08:02:09.705Z,17.1
2024-05-09T08:03:09.266Z,17.2
2024-05-09T08:04:08.581Z,17.3
2024-05-09T08:05:09.606Z,17.3
2024-05-09T08:06:08.964Z,17.4
2024-05-09T08:07:09.452Z,17.4
2024-05-09T08:08:08.571Z,17.4
2024-05-09T08:09:13.835Z,17.5
2024-05-09T08:10:12.754Z,17.5
2024-05-09T08:11:08.610Z,17.6
2024-05-09T08:12:08.550Z,17.6
2024-05-09T08:13:08.944Z,17.7
2024-05-09T08:14:08.540Z,17.8
2024-05-09T08:15:08.560Z,17.9
2024-05-09T08:16:09.123Z,17.9
2024-05-09T08:17:08.601Z,17.9
2024-05-09T08:18:09.037Z,18
2024-05-09T08:19:08.937Z,17.9
2024-05-09T08:20:08.644Z,18
2024-05-09T08:21:08.546Z,18
2024-05-09T08:22:09.094Z,18
2024-05-09T08:23:09.283Z,18.1
2024-05-09T08:24:08.600Z,18.2
2024-05-09T08:25:11.292Z,18.2
2024-05-09T08:26:09.262Z,18.3
2024-05-09T08:27:08.947Z,18.4
2024-05-09T08:28:08.706Z,18.4
2024-05-09T08:29:08.546Z,18.3
2024-05-09T08:30:15.437Z,18.4
2024-05-09T08:31:09.414Z,18.5
2024-05-09T08:32:08.575Z,18.5
2024-05-09T08:33:08.600Z,18.6
2024-05-09T08:34:08.707Z,18.6
2024-05-09T08:35:07.441Z,18.6
2024-05-09T08:36:09.143Z,18.7
2024-05-09T08:37:15.489Z,18.6
2024-05-09T08:38:08.672Z,18.5
2024-05-09T08:39:08.555Z,18.4
2024-05-09T08:40:11.165Z,18.4
2024-05-09T08:41:08.552Z,18.5
2024-05-09T08:42:09.070Z,18.6
2024-05-09T08:43:10.720Z,18.6
2024-05-09T08:44:08.553Z,18.7
2024-05-09T08:46:08.610Z,18.8
2024-05-09T08:47:08.704Z,18.9
2024-05-09T08:48:08.743Z,18.9
2024-05-09T08:49:08.657Z,19
2024-05-09T08:50:16.586Z,19
2024-05-09T08:51:09.216Z,19.1
2024-05-09T08:52:09.374Z,19.1
2024-05-09T08:53:09.305Z,19.2
2024-05-09T08:54:09.140Z,19.3
2024-05-09T08:55:08.657Z,19.3
2024-05-09T08:56:08.708Z,19.3
2024-05-09T08:57:08.634Z,19.2
2024-05-09T08:58:08.667Z,19.3
2024-05-09T08:59:08.561Z,19.4
2024-05-09T09:00:12.705Z,19.2
2024-05-09T09:01:09.566Z,19.3
2024-05-09T09:02:08.756Z,19.3
2024-05-09T09:03:08.628Z,19.4
2024-05-09T09:04:09.463Z,19.4
2024-05-09T09:05:09.350Z,19.5
2024-05-09T09:06:08.572Z,19.5
2024-05-09T09:07:08.664Z,19.6
2024-05-09T09:08:08.950Z,19.7
2024-05-09T09:09:09.205Z,19.8
2024-05-09T09:10:08.933Z,19.9
2024-05-09T09:11:09.422Z,19.9
2024-05-09T09:12:10.553Z,20
2024-05-09T09:13:09.595Z,20.1
2024-05-09T09:14:09.438Z,20.1
2024-05-09T09:15:09.059Z,20.1
2024-05-09T09:16:08.649Z,20.1
2024-05-09T09:17:09.119Z,20
2024-05-09T09:18:11.725Z,20.1
2024-05-09T09:19:08.788Z,20.2
2024-05-09T09:20:14.088Z,20.4
2024-05-09T09:21:08.578Z,20.5
2024-05-09T09:22:08.936Z,20.5
2024-05-09T09:23:08.905Z,20.5
2024-05-09T09:24:10.035Z,20.5
2024-05-09T09:25:08.669Z,20.5
2024-05-09T09:26:08.568Z,20.4
2024-05-09T09:27:08.573Z,20.4
2024-05-09T09:28:09.174Z,20.3
2024-05-09T09:29:08.577Z,20.3
2024-05-09T09:30:18.529Z,20.4
2024-05-09T09:31:08.649Z,20.3
2024-05-09T09:32:09.136Z,20.3
2024-05-09T09:33:08.906Z,20.2
2024-05-09T09:34:09.287Z,20.1
2024-05-09T09:35:08.624Z,20.2
2024-05-09T09:36:11.193Z,20.3
2024-05-09T09:37:09.184Z,20.3
2024-05-09T09:38:08.585Z,20.4
2024-05-09T09:39:08.602Z,20.5
2024-05-09T09:40:10.658Z,20.6
2024-05-09T09:41:09.277Z,20.7
2024-05-09T09:42:09.179Z,20.8
2024-05-09T09:43:09.134Z,21
2024-05-09T09:44:08.576Z,20.9
2024-05-09T09:45:09.568Z,20.7
2024-05-09T09:46:11.763Z,20.8
2024-05-09T09:47:08.647Z,20.8
2024-05-09T09:48:08.734Z,20.8
2024-05-09T09:49:08.895Z,20.8
2024-05-09T09:51:08.628Z,20.7
2024-05-09T09:52:10.968Z,20.8
2024-05-09T09:53:08.828Z,20.8
2024-05-09T09:54:09.218Z,20.8
2024-05-09T09:55:09.248Z,21
2024-05-09T09:56:09.124Z,20.9
2024-05-09T09:57:08.645Z,20.7
2024-05-09T09:58:11.990Z,20.7
2024-05-09T09:59:08.642Z,20.8
2024-05-09T10:00:11.799Z,20.8
2024-05-09T10:01:08.839Z,20.7
2024-05-09T10:02:08.888Z,20.8
2024-05-09T10:03:08.668Z,20.9
2024-05-09T10:04:08.661Z,20.9
2024-05-09T10:05:08.796Z,20.8
2024-05-09T10:06:08.661Z,20.8
2024-05-09T10:07:08.851Z,20.7
2024-05-09T10:08:08.604Z,20.8
2024-05-09T10:09:08.594Z,20.8
2024-05-09T10:10:11.020Z,20.9
2024-05-09T10:11:09.174Z,21.1
2024-05-09T10:12:09.516Z,21.2
2024-05-09T10:13:09.027Z,21.3
2024-05-09T10:14:08.598Z,21.6
2024-05-09T10:15:08.604Z,21.6
2024-05-09T10:16:08.947Z,21.7
2024-05-09T10:17:09.205Z,21.8
2024-05-09T10:18:08.858Z,22
2024-05-09T10:19:09.610Z,22.1
2024-05-09T10:20:14.923Z,22.3
2024-05-09T10:21:09.133Z,22.2
2024-05-09T10:22:09.212Z,22.1
2024-05-09T10:23:08.608Z,22.2
2024-05-09T10:24:08.765Z,22.5
2024-05-09T10:25:08.664Z,22.7
2024-05-09T10:26:09.442Z,22.8
2024-05-09T10:27:09.123Z,22.8
2024-05-09T10:28:08.810Z,22.9
2024-05-09T10:29:09.045Z,22.9
2024-05-09T10:30:14.628Z,22.8
2024-05-09T10:31:09.424Z,22.9
2024-05-09T10:32:09.510Z,22.9
2024-05-09T10:33:09.241Z,22.7
2024-05-09T10:34:09.356Z,22.5
2024-05-09T10:35:08.743Z,22.2
2024-05-09T10:36:08.618Z,21.9
2024-05-09T10:37:08.673Z,21.8
2024-05-09T10:38:08.650Z,21.8
2024-05-09T10:39:08.627Z,21.7
2024-05-09T10:40:14.265Z,21.7
2024-05-09T10:41:08.623Z,21.8
2024-05-09T10:42:08.617Z,21.8
2024-05-09T10:43:09.244Z,21.7
2024-05-09T10:44:09.102Z,21.6
2024-05-09T10:45:09.085Z,21.5
2024-05-09T10:46:09.764Z,21.4
2024-05-09T10:47:09.264Z,21.5
2024-05-09T10:49:09.379Z,21.3
2024-05-09T10:50:18.057Z,21.4
2024-05-09T10:51:08.628Z,21.5
2024-05-09T10:52:09.007Z,21.6
2024-05-09T10:53:08.616Z,21.7
2024-05-09T10:54:08.625Z,21.8
2024-05-09T10:55:09.065Z,21.8
2024-05-09T10:56:08.627Z,21.9
2024-05-09T10:57:09.495Z,22.1
2024-05-09T10:58:09.892Z,22.3
2024-05-09T10:59:08.630Z,22.4
2024-05-09T11:00:15.800Z,22.5
2024-05-09T11:01:09.407Z,22.7
2024-05-09T11:02:08.873Z,22.9
2024-05-09T11:03:08.685Z,23.1
2024-05-09T11:04:09.174Z,23.3
2024-05-09T11:05:07.847Z,23.5
2024-05-09T11:06:08.634Z,23.7
2024-05-09T11:07:08.676Z,23.8
2024-05-09T11:08:09.159Z,23.9
2024-05-09T11:09:08.658Z,24
2024-05-09T11:10:12.509Z,23.9
2024-05-09T11:11:09.077Z,23.6
2024-05-09T11:12:09.509Z,23.6
2024-05-09T11:13:08.752Z,23.7
2024-05-09T11:14:09.245Z,23.8
2024-05-09T11:15:09.152Z,23.9
2024-05-09T11:16:08.678Z,23.9
2024-05-09T11:17:08.738Z,23.9
2024-05-09T11:18:09.342Z,23.9
2024-05-09T11:19:09.548Z,23.8
2024-05-09T11:20:16.717Z,23.8
2024-05-09T11:21:09.234Z,23.8
2024-05-09T11:22:08.775Z,23.8
2024-05-09T11:23:09.325Z,23.8
2024-05-09T11:24:11.378Z,23.8
2024-05-09T11:25:09.318Z,23.6
2024-05-09T11:26:08.656Z,23.5
2024-05-09T11:27:09.438Z,23.4
2024-05-09T11:28:08.957Z,23.2
2024-05-09T11:29:09.096Z,23.2
2024-05-09T11:30:14.353Z,23.1
2024-05-09T11:31:09.395Z,22.9
2024-05-09T11:32:09.138Z,22.8
2024-05-09T11:33:09.175Z,23
2024-05-09T11:34:09.228Z,23.2
2024-05-09T11:35:08.704Z,23.4
2024-05-09T11:36:09.602Z,23.3
2024-05-09T11:37:09.111Z,23.4
2024-05-09T11:38:08.650Z,23.2
2024-05-09T11:39:09.218Z,23.3
2024-05-09T11:40:13.860Z,23.5
2024-05-09T11:41:08.687Z,23.7
2024-05-09T11:42:08.655Z,23.8
2024-05-09T11:43:09.511Z,23.9
2024-05-09T11:44:09.074Z,23.8
2024-05-09T11:45:08.652Z,24.1
2024-05-09T11:46:08.703Z,24.3
2024-05-09T11:47:09.283Z,24.5
2024-05-09T11:48:08.743Z,24.5
2024-05-09T11:49:09.590Z,24.5
2024-05-09T11:50:15.983Z,24.7
2024-05-09T11:51:08.959Z,24.6
2024-05-09T11:52:09.253Z,24.7
2024-05-09T11:53:08.665Z,24.9
2024-05-09T11:54:08.901Z,24.9
2024-05-09T11:55:08.813Z,25
2024-05-09T11:56:08.662Z,24.8
2024-05-09T11:57:08.730Z,24.8
2024-05-09T11:58:08.723Z,24.8
2024-05-09T11:59:09.338Z,24.6
2024-05-09T12:00:14.763Z,24.4
2024-05-09T12:01:08.820Z,24.4
2024-05-09T12:03:08.770Z,24.4
2024-05-09T12:04:09.517Z,24.3
2024-05-09T12:05:08.939Z,24.2
2024-05-09T12:06:09.207Z,24
2024-05-09T12:07:12.204Z,23.9
2024-05-09T12:08:08.670Z,23.7
2024-05-09T12:09:08.837Z,23.7
2024-05-09T12:10:16.805Z,23.8
2024-05-09T12:11:09.038Z,23.8
2024-05-09T12:12:09.572Z,23.8
2024-05-09T12:13:08.760Z,23.9
2024-05-09T12:14:09.127Z,23.8
2024-05-09T12:15:08.736Z,23.8
2024-05-09T12:16:08.737Z,24
2024-05-09T12:17:09.334Z,24.1
2024-05-09T12:18:08.820Z,24.2
2024-05-09T12:19:09.616Z,24.3
2024-05-09T12:20:14.301Z,24.5
2024-05-09T12:21:09.552Z,24.6
2024-05-09T12:22:09.039Z,24.7
2024-05-09T12:23:10.498Z,24.7
2024-05-09T12:24:09.485Z,24.4
2024-05-09T12:25:09.155Z,24.5
2024-05-09T12:26:08.710Z,24.7
2024-05-09T12:27:09.258Z,24.9
2024-05-09T12:28:09.370Z,25.1
2024-05-09T12:29:09.227Z,25.1
2024-05-09T12:30:11.399Z,25.1
2024-05-09T12:31:08.756Z,25.3
2024-05-09T12:32:08.779Z,25.3
2024-05-09T12:33:11.108Z,25.2
2024-05-09T12:34:08.831Z,25.2
2024-05-09T12:35:09.150Z,25.1
2024-05-09T12:36:09.284Z,25.2
2024-05-09T12:37:09.697Z,25.2
2024-05-09T12:38:08.721Z,25.3
2024-05-09T12:39:08.699Z,25.4
2024-05-09T12:40:18.392Z,25.4
2024-05-09T12:41:08.811Z,25.6
2024-05-09T12:42:09.778Z,25.6
2024-05-09T12:43:10.386Z,25.6
2024-05-09T12:44:08.725Z,25.7
2024-05-09T12:45:08.922Z,25.8
2024-05-09T12:46:09.362Z,25.9
2024-05-09T12:47:08.708Z,26
2024-05-09T12:48:08.946Z,26.1
2024-05-09T12:49:09.479Z,26.4
2024-05-09T12:50:18.601Z,26.5
2024-05-09T12:51:08.884Z,26.5
2024-05-09T12:52:09.586Z,26.5
2024-05-09T12:53:09.135Z,26.5
2024-05-09T12:54:08.745Z,26.5
2024-05-09T12:55:09.206Z,26.4
2024-05-09T12:56:09.528Z,26.1
2024-05-09T12:57:09.423Z,25.6
2024-05-09T12:58:09.093Z,25.4
2024-05-09T12:59:08.713Z,24.8
2024-05-09T13:00:17.039Z,24.6
2024-05-09T13:01:09.351Z,24.4
2024-05-09T13:02:09.447Z,24.4
2024-05-09T13:03:09.372Z,24.2
2024-05-09T13:04:09.119Z,24.1
2024-05-09T13:05:09.327Z,24.1
2024-05-09T13:06:09.633Z,24
2024-05-09T13:07:09.253Z,23.9
2024-05-09T13:08:08.745Z,23.9
2024-05-09T13:09:08.717Z,23.8
2024-05-09T13:10:04.428Z,23.7
2024-05-09T13:11:08.837Z,23.5
2024-05-09T13:12:08.735Z,23.4
2024-05-09T13:13:09.826Z,23.6
2024-05-09T13:14:08.712Z,23.5
2024-05-09T13:15:08.738Z,23.5
2024-05-09T13:16:08.740Z,23.5
2024-05-09T13:17:08.751Z,23.4
2024-05-09T13:18:08.775Z,23.2
2024-05-09T13:19:09.190Z,23.2
2024-05-09T13:20:15.157Z,23.1
2024-05-09T13:21:08.945Z,23.1
2024-05-09T13:22:09.156Z,23.2
2024-05-09T13:23:08.895Z,23.2
2024-05-09T13:24:09.005Z,23.1
2024-05-09T13:25:09.162Z,23.2
2024-05-09T13:26:09.252Z,23
2024-05-09T13:27:09.602Z,22.9
2024-05-09T13:28:09.148Z,22.9
2024-05-09T13:29:08.735Z,22.8
2024-05-09T13:30:14.663Z,22.9
2024-05-09T13:31:08.746Z,22.9
2024-05-09T13:32:09.659Z,22.9
2024-05-09T13:33:09.121Z,22.9
2024-05-09T13:34:09.437Z,23
2024-05-09T13:35:07.620Z,23.2
2024-05-09T13:36:08.742Z,23.3
2024-05-09T13:37:09.386Z,23.5
2024-05-09T13:38:08.746Z,23.7
2024-05-09T13:39:08.742Z,23.9
2024-05-09T13:40:12.111Z,24.1
2024-05-09T13:41:09.361Z,24.3
2024-05-09T13:42:08.740Z,24.4
2024-05-09T13:43:09.252Z,24.5
2024-05-09T13:44:09.455Z,24.5
2024-05-09T13:45:08.824Z,24.4